sensor_id;sensor_type;location;lat;lon;timestamp;P1;durP1;ratioP1;P2;durP2;ratioP2
66298;SDS011;53098;47.658;8.578;2024-01-27T00:01:22;3.27;;;0.90;;
66298;SDS011;53098;47.658;8.578;2024-01-27T00:03:47;3.40;;;0.90;;
66298;SDS011;53098;47.658;8.578;2024-01-27T00:06:13;3.83;;;0.90;;
66298;SDS011;53098;47.658;8.578;2024-01-27T00:08:38;3.80;;;1.27;;
66298;SDS011;53098;47.658;8.578;2024-01-27T00:11:03;5.03;;;0.97;;
66298;SDS011;53098;47.658;8.578;2024-01-27T00:13:28;2.30;;;0.87;;
66298;SDS011;53098;47.658;8.578;2024-01-27T00:15:54;5.87;;;0.90;;
66298;SDS011;53098;47.658;8.578;2024-01-27T00:18:19;3.13;;;1.13;;
66298;SDS011;53098;47.658;8.578;2024-01-27T00:20:44;6.27;;;1.00;;
66298;SDS011;53098;47.658;8.578;2024-01-27T00:23:10;4.80;;;1.33;;
66298;SDS011;53098;47.658;8.578;2024-01-27T00:25:35;5.00;;;1.40;;
66298;SDS011;53098;47.658;8.578;2024-01-27T00:28:00;5.67;;;1.30;;
66298;SDS011;53098;47.658;8.578;2024-01-27T00:30:25;5.00;;;1.50;;
66298;SDS011;53098;47.658;8.578;2024-01-27T00:32:50;4.87;;;0.90;;
66298;SDS011;53098;47.658;8.578;2024-01-27T00:35:16;5.07;;;0.90;;
66298;SDS011;53098;47.658;8.578;2024-01-27T00:37:41;4.47;;;1.00;;
66298;SDS011;53098;47.658;8.578;2024-01-27T00:40:10;4.23;;;0.90;;
66298;SDS011;53098;47.658;8.578;2024-01-27T00:42:35;4.38;;;1.23;;
66298;SDS011;53098;47.658;8.578;2024-01-27T00:45:00;5.35;;;1.13;;
66298;SDS011;53098;47.658;8.578;2024-01-27T00:47:26;3.47;;;1.50;;
66298;SDS011;53098;47.658;8.578;2024-01-27T00:49:51;3.63;;;1.13;;
66298;SDS011;53098;47.658;8.578;2024-01-27T00:52:16;3.47;;;0.97;;
66298;SDS011;53098;47.658;8.578;2024-01-27T00:54:41;2.70;;;1.10;;
66298;SDS011;53098;47.658;8.578;2024-01-27T00:57:07;3.67;;;1.47;;
66298;SDS011;53098;47.658;8.578;2024-01-27T00:59:32;2.00;;;0.80;;
66298;SDS011;53098;47.658;8.578;2024-01-27T01:01:57;3.33;;;1.20;;
66298;SDS011;53098;47.658;8.578;2024-01-27T01:04:22;2.57;;;0.73;;
66298;SDS011;53098;47.658;8.578;2024-01-27T01:06:48;4.53;;;1.17;;
66298;SDS011;53098;47.658;8.578;2024-01-27T01:09:13;3.43;;;1.27;;
66298;SDS011;53098;47.658;8.578;2024-01-27T01:11:38;3.50;;;1.00;;
66298;SDS011;53098;47.658;8.578;2024-01-27T01:14:03;6.80;;;0.93;;
66298;SDS011;53098;47.658;8.578;2024-01-27T01:16:29;2.90;;;0.73;;
66298;SDS011;53098;47.658;8.578;2024-01-27T01:18:54;6.13;;;0.87;;
66298;SDS011;53098;47.658;8.578;2024-01-27T01:21:19;4.10;;;1.33;;
66298;SDS011;53098;47.658;8.578;2024-01-27T01:23:44;2.07;;;0.80;;
66298;SDS011;53098;47.658;8.578;2024-01-27T01:26:10;2.23;;;1.00;;
66298;SDS011;53098;47.658;8.578;2024-01-27T01:28:35;4.47;;;1.13;;
66298;SDS011;53098;47.658;8.578;2024-01-27T01:31:00;1.90;;;0.67;;
66298;SDS011;53098;47.658;8.578;2024-01-27T01:33:25;3.07;;;0.83;;
66298;SDS011;53098;47.658;8.578;2024-01-27T01:35:50;4.37;;;1.10;;
66298;SDS011;53098;47.658;8.578;2024-01-27T01:38:16;6.23;;;1.17;;
66298;SDS011;53098;47.658;8.578;2024-01-27T01:40:41;3.57;;;1.00;;
66298;SDS011;53098;47.658;8.578;2024-01-27T01:43:09;5.33;;;1.20;;
66298;SDS011;53098;47.658;8.578;2024-01-27T01:45:34;8.80;;;1.20;;
66298;SDS011;53098;47.658;8.578;2024-01-27T01:48:00;3.90;;;0.90;;
66298;SDS011;53098;47.658;8.578;2024-01-27T01:50:25;4.77;;;0.83;;
66298;SDS011;53098;47.658;8.578;2024-01-27T01:52:50;5.63;;;1.10;;
66298;SDS011;53098;47.658;8.578;2024-01-27T01:55:17;5.57;;;1.40;;
66298;SDS011;53098;47.658;8.578;2024-01-27T01:57:42;5.37;;;1.20;;
66298;SDS011;53098;47.658;8.578;2024-01-27T02:00:08;4.93;;;1.20;;
66298;SDS011;53098;47.658;8.578;2024-01-27T02:02:33;7.63;;;1.08;;
66298;SDS011;53098;47.658;8.578;2024-01-27T02:04:59;4.55;;;1.38;;
66298;SDS011;53098;47.658;8.578;2024-01-27T02:07:24;3.07;;;0.80;;
66298;SDS011;53098;47.658;8.578;2024-01-27T02:09:49;8.63;;;1.47;;
66298;SDS011;53098;47.658;8.578;2024-01-27T02:12:14;5.17;;;1.90;;
66298;SDS011;53098;47.658;8.578;2024-01-27T02:14:40;3.90;;;1.07;;
66298;SDS011;53098;47.658;8.578;2024-01-27T02:17:05;7.37;;;0.90;;
66298;SDS011;53098;47.658;8.578;2024-01-27T02:19:30;8.17;;;1.20;;
66298;SDS011;53098;47.658;8.578;2024-01-27T02:21:55;6.57;;;1.40;;
66298;SDS011;53098;47.658;8.578;2024-01-27T02:24:20;4.67;;;1.10;;
66298;SDS011;53098;47.658;8.578;2024-01-27T02:26:46;4.63;;;1.03;;
66298;SDS011;53098;47.658;8.578;2024-01-27T02:29:11;2.73;;;1.00;;
66298;SDS011;53098;47.658;8.578;2024-01-27T02:31:36;9.17;;;1.20;;
66298;SDS011;53098;47.658;8.578;2024-01-27T02:34:01;2.83;;;1.00;;
66298;SDS011;53098;47.658;8.578;2024-01-27T02:36:27;4.67;;;1.30;;
66298;SDS011;53098;47.658;8.578;2024-01-27T02:38:52;3.93;;;1.00;;
66298;SDS011;53098;47.658;8.578;2024-01-27T02:41:17;4.97;;;1.48;;
66298;SDS011;53098;47.658;8.578;2024-01-27T02:43:42;4.43;;;0.90;;
66298;SDS011;53098;47.658;8.578;2024-01-27T02:46:10;4.20;;;0.97;;
66298;SDS011;53098;47.658;8.578;2024-01-27T02:48:35;6.55;;;1.17;;
66298;SDS011;53098;47.658;8.578;2024-01-27T02:51:03;4.13;;;1.23;;
66298;SDS011;53098;47.658;8.578;2024-01-27T02:53:29;4.68;;;1.25;;
66298;SDS011;53098;47.658;8.578;2024-01-27T02:55:54;1.43;;;0.90;;
66298;SDS011;53098;47.658;8.578;2024-01-27T02:58:19;4.47;;;1.20;;
66298;SDS011;53098;47.658;8.578;2024-01-27T03:00:44;8.03;;;1.10;;
66298;SDS011;53098;47.658;8.578;2024-01-27T03:03:10;3.93;;;1.10;;
66298;SDS011;53098;47.658;8.578;2024-01-27T03:05:35;2.50;;;1.10;;
66298;SDS011;53098;47.658;8.578;2024-01-27T03:08:00;4.23;;;0.90;;
66298;SDS011;53098;47.658;8.578;2024-01-27T03:10:25;4.47;;;1.10;;
66298;SDS011;53098;47.658;8.578;2024-01-27T03:12:51;4.87;;;1.20;;
66298;SDS011;53098;47.658;8.578;2024-01-27T03:15:16;4.20;;;1.10;;
66298;SDS011;53098;47.658;8.578;2024-01-27T03:17:41;2.30;;;1.00;;
66298;SDS011;53098;47.658;8.578;2024-01-27T03:20:06;3.53;;;1.10;;
66298;SDS011;53098;47.658;8.578;2024-01-27T03:22:32;4.57;;;1.70;;
66298;SDS011;53098;47.658;8.578;2024-01-27T03:24:57;5.37;;;1.13;;
66298;SDS011;53098;47.658;8.578;2024-01-27T03:27:22;6.27;;;1.70;;
66298;SDS011;53098;47.658;8.578;2024-01-27T03:29:48;5.47;;;0.90;;
66298;SDS011;53098;47.658;8.578;2024-01-27T03:32:13;3.97;;;1.17;;
66298;SDS011;53098;47.658;8.578;2024-01-27T03:34:43;3.73;;;1.30;;
66298;SDS011;53098;47.658;8.578;2024-01-27T03:37:08;3.83;;;1.20;;
66298;SDS011;53098;47.658;8.578;2024-01-27T03:39:33;4.30;;;0.90;;
66298;SDS011;53098;47.658;8.578;2024-01-27T03:41:58;3.13;;;1.20;;
66298;SDS011;53098;47.658;8.578;2024-01-27T03:44:24;6.83;;;1.10;;
66298;SDS011;53098;47.658;8.578;2024-01-27T03:46:49;3.57;;;1.10;;
66298;SDS011;53098;47.658;8.578;2024-01-27T03:49:14;3.77;;;1.10;;
66298;SDS011;53098;47.658;8.578;2024-01-27T03:51:39;6.40;;;1.37;;
66298;SDS011;53098;47.658;8.578;2024-01-27T03:54:04;2.60;;;1.47;;
66298;SDS011;53098;47.658;8.578;2024-01-27T03:56:30;6.25;;;2.10;;
66298;SDS011;53098;47.658;8.578;2024-01-27T03:58:55;4.80;;;1.10;;
66298;SDS011;53098;47.658;8.578;2024-01-27T04:01:20;2.47;;;0.90;;
66298;SDS011;53098;47.658;8.578;2024-01-27T04:03:46;4.47;;;1.37;;
66298;SDS011;53098;47.658;8.578;2024-01-27T04:06:11;6.23;;;1.23;;
66298;SDS011;53098;47.658;8.578;2024-01-27T04:08:36;4.63;;;1.30;;
66298;SDS011;53098;47.658;8.578;2024-01-27T04:11:01;5.97;;;1.77;;
66298;SDS011;53098;47.658;8.578;2024-01-27T04:13:27;6.67;;;1.07;;
66298;SDS011;53098;47.658;8.578;2024-01-27T04:15:52;3.22;;;1.15;;
66298;SDS011;53098;47.658;8.578;2024-01-27T04:18:17;6.27;;;1.47;;
66298;SDS011;53098;47.658;8.578;2024-01-27T04:20:42;6.90;;;1.77;;
66298;SDS011;53098;47.658;8.578;2024-01-27T04:23:08;2.47;;;0.90;;
66298;SDS011;53098;47.658;8.578;2024-01-27T04:25:33;8.93;;;1.10;;
66298;SDS011;53098;47.658;8.578;2024-01-27T04:27:58;7.77;;;1.20;;
66298;SDS011;53098;47.658;8.578;2024-01-27T04:30:23;4.10;;;1.20;;
66298;SDS011;53098;47.658;8.578;2024-01-27T04:32:49;6.80;;;1.50;;
66298;SDS011;53098;47.658;8.578;2024-01-27T04:35:14;2.20;;;0.90;;
66298;SDS011;53098;47.658;8.578;2024-01-27T04:37:39;9.63;;;1.47;;
66298;SDS011;53098;47.658;8.578;2024-01-27T04:40:05;4.20;;;1.30;;
66298;SDS011;53098;47.658;8.578;2024-01-27T04:42:30;1.67;;;0.90;;
66298;SDS011;53098;47.658;8.578;2024-01-27T04:44:55;5.87;;;1.43;;
66298;SDS011;53098;47.658;8.578;2024-01-27T04:47:21;4.10;;;1.30;;
66298;SDS011;53098;47.658;8.578;2024-01-27T04:49:46;6.53;;;1.30;;
66298;SDS011;53098;47.658;8.578;2024-01-27T04:52:11;7.97;;;1.43;;
66298;SDS011;53098;47.658;8.578;2024-01-27T04:54:36;6.60;;;1.40;;
66298;SDS011;53098;47.658;8.578;2024-01-27T04:57:01;4.70;;;1.40;;
66298;SDS011;53098;47.658;8.578;2024-01-27T04:59:27;5.80;;;1.40;;
66298;SDS011;53098;47.658;8.578;2024-01-27T05:01:52;4.63;;;1.10;;
66298;SDS011;53098;47.658;8.578;2024-01-27T05:04:17;6.18;;;1.48;;
66298;SDS011;53098;47.658;8.578;2024-01-27T05:06:46;6.80;;;1.27;;
66298;SDS011;53098;47.658;8.578;2024-01-27T05:09:11;3.42;;;1.10;;
66298;SDS011;53098;47.658;8.578;2024-01-27T05:11:36;4.30;;;1.20;;
66298;SDS011;53098;47.658;8.578;2024-01-27T05:14:01;5.10;;;1.90;;
66298;SDS011;53098;47.658;8.578;2024-01-27T05:16:27;6.77;;;1.93;;
66298;SDS011;53098;47.658;8.578;2024-01-27T05:18:52;4.25;;;1.15;;
66298;SDS011;53098;47.658;8.578;2024-01-27T05:21:18;4.60;;;1.10;;
66298;SDS011;53098;47.658;8.578;2024-01-27T05:23:43;5.13;;;1.40;;
66298;SDS011;53098;47.658;8.578;2024-01-27T05:26:08;5.27;;;1.20;;
66298;SDS011;53098;47.658;8.578;2024-01-27T05:28:33;5.67;;;1.27;;
66298;SDS011;53098;47.658;8.578;2024-01-27T05:30:59;6.27;;;1.77;;
66298;SDS011;53098;47.658;8.578;2024-01-27T05:33:24;3.40;;;1.20;;
66298;SDS011;53098;47.658;8.578;2024-01-27T05:35:50;4.28;;;1.40;;
66298;SDS011;53098;47.658;8.578;2024-01-27T05:38:15;5.63;;;1.40;;
66298;SDS011;53098;47.658;8.578;2024-01-27T05:40:40;8.53;;;1.50;;
66298;SDS011;53098;47.658;8.578;2024-01-27T05:43:05;5.77;;;1.37;;
66298;SDS011;53098;47.658;8.578;2024-01-27T05:45:31;5.13;;;1.30;;
66298;SDS011;53098;47.658;8.578;2024-01-27T05:47:56;3.67;;;1.40;;
66298;SDS011;53098;47.658;8.578;2024-01-27T05:50:21;6.63;;;1.37;;
66298;SDS011;53098;47.658;8.578;2024-01-27T05:52:46;6.10;;;1.67;;
66298;SDS011;53098;47.658;8.578;2024-01-27T05:55:12;6.27;;;1.60;;
66298;SDS011;53098;47.658;8.578;2024-01-27T05:57:37;7.57;;;1.30;;
66298;SDS011;53098;47.658;8.578;2024-01-27T06:00:03;3.20;;;1.30;;
66298;SDS011;53098;47.658;8.578;2024-01-27T06:02:28;7.15;;;1.80;;
66298;SDS011;53098;47.658;8.578;2024-01-27T06:04:53;7.40;;;1.33;;
66298;SDS011;53098;47.658;8.578;2024-01-27T06:07:19;5.10;;;1.20;;
66298;SDS011;53098;47.658;8.578;2024-01-27T06:09:44;7.37;;;1.67;;
66298;SDS011;53098;47.658;8.578;2024-01-27T06:12:09;6.47;;;1.30;;
66298;SDS011;53098;47.658;8.578;2024-01-27T06:14:34;8.93;;;1.70;;
66298;SDS011;53098;47.658;8.578;2024-01-27T06:17:00;4.43;;;1.33;;
66298;SDS011;53098;47.658;8.578;2024-01-27T06:19:26;6.80;;;2.10;;
66298;SDS011;53098;47.658;8.578;2024-01-27T06:21:51;5.22;;;1.88;;
66298;SDS011;53098;47.658;8.578;2024-01-27T06:24:16;4.77;;;1.50;;
66298;SDS011;53098;47.658;8.578;2024-01-27T06:26:42;5.23;;;1.20;;
66298;SDS011;53098;47.658;8.578;2024-01-27T06:29:07;4.80;;;1.63;;
66298;SDS011;53098;47.658;8.578;2024-01-27T06:31:32;5.87;;;1.77;;
66298;SDS011;53098;47.658;8.578;2024-01-27T06:33:57;7.13;;;1.50;;
66298;SDS011;53098;47.658;8.578;2024-01-27T06:36:24;6.13;;;1.40;;
66298;SDS011;53098;47.658;8.578;2024-01-27T06:38:49;5.35;;;1.23;;
66298;SDS011;53098;47.658;8.578;2024-01-27T06:41:14;4.40;;;1.00;;
66298;SDS011;53098;47.658;8.578;2024-01-27T06:43:40;5.23;;;1.67;;
66298;SDS011;53098;47.658;8.578;2024-01-27T06:46:05;6.77;;;1.27;;
66298;SDS011;53098;47.658;8.578;2024-01-27T06:48:30;3.33;;;1.47;;
66298;SDS011;53098;47.658;8.578;2024-01-27T06:50:55;4.53;;;1.57;;
66298;SDS011;53098;47.658;8.578;2024-01-27T06:53:21;6.10;;;1.57;;
66298;SDS011;53098;47.658;8.578;2024-01-27T06:55:46;4.90;;;1.33;;
66298;SDS011;53098;47.658;8.578;2024-01-27T06:58:11;5.43;;;1.50;;
66298;SDS011;53098;47.658;8.578;2024-01-27T07:00:36;4.37;;;1.40;;
66298;SDS011;53098;47.658;8.578;2024-01-27T07:03:02;10.27;;;2.87;;
66298;SDS011;53098;47.658;8.578;2024-01-27T07:05:27;6.83;;;1.83;;
66298;SDS011;53098;47.658;8.578;2024-01-27T07:07:52;6.43;;;1.60;;
66298;SDS011;53098;47.658;8.578;2024-01-27T07:10:17;7.90;;;1.60;;
66298;SDS011;53098;47.658;8.578;2024-01-27T07:12:43;6.97;;;2.20;;
66298;SDS011;53098;47.658;8.578;2024-01-27T07:15:08;8.80;;;1.80;;
66298;SDS011;53098;47.658;8.578;2024-01-27T07:17:33;9.13;;;2.23;;
66298;SDS011;53098;47.658;8.578;2024-01-27T07:19:58;11.27;;;2.50;;
66298;SDS011;53098;47.658;8.578;2024-01-27T07:22:24;5.07;;;1.70;;
66298;SDS011;53098;47.658;8.578;2024-01-27T07:24:49;11.30;;;2.37;;
66298;SDS011;53098;47.658;8.578;2024-01-27T07:27:14;11.63;;;1.97;;
66298;SDS011;53098;47.658;8.578;2024-01-27T07:29:40;4.70;;;1.93;;
66298;SDS011;53098;47.658;8.578;2024-01-27T07:32:05;7.10;;;1.85;;
66298;SDS011;53098;47.658;8.578;2024-01-27T07:34:30;6.93;;;2.10;;
66298;SDS011;53098;47.658;8.578;2024-01-27T07:36:55;7.53;;;1.70;;
66298;SDS011;53098;47.658;8.578;2024-01-27T07:39:21;7.47;;;1.63;;
66298;SDS011;53098;47.658;8.578;2024-01-27T07:41:46;8.03;;;2.10;;
66298;SDS011;53098;47.658;8.578;2024-01-27T07:44:12;3.03;;;1.40;;
66298;SDS011;53098;47.658;8.578;2024-01-27T07:46:38;4.60;;;1.50;;
66298;SDS011;53098;47.658;8.578;2024-01-27T07:49:04;8.18;;;2.20;;
66298;SDS011;53098;47.658;8.578;2024-01-27T07:51:30;8.88;;;2.63;;
66298;SDS011;53098;47.658;8.578;2024-01-27T07:53:55;13.53;;;3.67;;
66298;SDS011;53098;47.658;8.578;2024-01-27T07:56:20;10.70;;;3.97;;
66298;SDS011;53098;47.658;8.578;2024-01-27T07:58:46;8.27;;;4.57;;
66298;SDS011;53098;47.658;8.578;2024-01-27T08:01:14;10.30;;;3.70;;
66298;SDS011;53098;47.658;8.578;2024-01-27T08:03:39;10.15;;;3.30;;
66298;SDS011;53098;47.658;8.578;2024-01-27T08:06:05;6.30;;;2.77;;
66298;SDS011;53098;47.658;8.578;2024-01-27T08:08:30;12.30;;;3.40;;
66298;SDS011;53098;47.658;8.578;2024-01-27T08:10:55;11.03;;;3.50;;
66298;SDS011;53098;47.658;8.578;2024-01-27T08:13:21;8.83;;;2.90;;
66298;SDS011;53098;47.658;8.578;2024-01-27T08:15:46;9.07;;;2.33;;
66298;SDS011;53098;47.658;8.578;2024-01-27T08:18:11;7.07;;;1.80;;
66298;SDS011;53098;47.658;8.578;2024-01-27T08:20:36;8.03;;;2.17;;
66298;SDS011;53098;47.658;8.578;2024-01-27T08:23:02;12.97;;;2.60;;
66298;SDS011;53098;47.658;8.578;2024-01-27T08:25:27;6.40;;;2.00;;
66298;SDS011;53098;47.658;8.578;2024-01-27T08:27:52;6.57;;;2.03;;
66298;SDS011;53098;47.658;8.578;2024-01-27T08:30:17;7.87;;;2.13;;
66298;SDS011;53098;47.658;8.578;2024-01-27T08:32:43;9.63;;;3.03;;
66298;SDS011;53098;47.658;8.578;2024-01-27T08:35:08;5.57;;;1.90;;
66298;SDS011;53098;47.658;8.578;2024-01-27T08:37:33;5.03;;;1.80;;
66298;SDS011;53098;47.658;8.578;2024-01-27T08:39:58;6.67;;;2.13;;
66298;SDS011;53098;47.658;8.578;2024-01-27T08:42:24;8.97;;;2.07;;
66298;SDS011;53098;47.658;8.578;2024-01-27T08:44:49;7.83;;;1.70;;
66298;SDS011;53098;47.658;8.578;2024-01-27T08:47:14;5.87;;;1.90;;
66298;SDS011;53098;47.658;8.578;2024-01-27T08:49:39;6.73;;;1.83;;
66298;SDS011;53098;47.658;8.578;2024-01-27T08:52:05;7.57;;;1.83;;
66298;SDS011;53098;47.658;8.578;2024-01-27T08:54:30;6.13;;;1.83;;
66298;SDS011;53098;47.658;8.578;2024-01-27T08:56:55;5.70;;;2.30;;
66298;SDS011;53098;47.658;8.578;2024-01-27T08:59:20;8.53;;;2.30;;
66298;SDS011;53098;47.658;8.578;2024-01-27T09:01:47;7.22;;;2.40;;
66298;SDS011;53098;47.658;8.578;2024-01-27T09:04:12;6.20;;;2.00;;
66298;SDS011;53098;47.658;8.578;2024-01-27T09:06:37;7.63;;;2.43;;
66298;SDS011;53098;47.658;8.578;2024-01-27T09:09:02;7.23;;;1.73;;
66298;SDS011;53098;47.658;8.578;2024-01-27T09:11:28;8.30;;;2.10;;
66298;SDS011;53098;47.658;8.578;2024-01-27T09:13:53;9.47;;;2.67;;
66298;SDS011;53098;47.658;8.578;2024-01-27T09:16:18;5.77;;;1.87;;
66298;SDS011;53098;47.658;8.578;2024-01-27T09:18:44;8.60;;;2.28;;
66298;SDS011;53098;47.658;8.578;2024-01-27T09:21:09;6.27;;;2.07;;
66298;SDS011;53098;47.658;8.578;2024-01-27T09:23:34;9.83;;;2.10;;
66298;SDS011;53098;47.658;8.578;2024-01-27T09:26:00;7.43;;;2.05;;
66298;SDS011;53098;47.658;8.578;2024-01-27T09:28:25;5.68;;;1.85;;
66298;SDS011;53098;47.658;8.578;2024-01-27T09:30:50;7.10;;;2.07;;
66298;SDS011;53098;47.658;8.578;2024-01-27T09:33:15;8.30;;;2.50;;
66298;SDS011;53098;47.658;8.578;2024-01-27T09:35:41;11.10;;;2.80;;
66298;SDS011;53098;47.658;8.578;2024-01-27T09:38:06;6.97;;;2.00;;
66298;SDS011;53098;47.658;8.578;2024-01-27T09:40:31;6.53;;;1.87;;
66298;SDS011;53098;47.658;8.578;2024-01-27T09:42:58;8.70;;;2.83;;
66298;SDS011;53098;47.658;8.578;2024-01-27T09:45:24;6.88;;;1.80;;
66298;SDS011;53098;47.658;8.578;2024-01-27T09:47:49;8.43;;;1.83;;
66298;SDS011;53098;47.658;8.578;2024-01-27T09:50:17;8.50;;;2.13;;
66298;SDS011;53098;47.658;8.578;2024-01-27T09:52:42;7.35;;;2.05;;
66298;SDS011;53098;47.658;8.578;2024-01-27T09:55:07;6.40;;;2.22;;
66298;SDS011;53098;47.658;8.578;2024-01-27T09:57:33;6.13;;;2.07;;
66298;SDS011;53098;47.658;8.578;2024-01-27T09:59:58;8.90;;;2.00;;
66298;SDS011;53098;47.658;8.578;2024-01-27T10:02:24;6.95;;;1.98;;
66298;SDS011;53098;47.658;8.578;2024-01-27T10:04:50;6.38;;;1.98;;
66298;SDS011;53098;47.658;8.578;2024-01-27T10:07:15;8.80;;;2.07;;
66298;SDS011;53098;47.658;8.578;2024-01-27T10:09:41;4.67;;;1.47;;
66298;SDS011;53098;47.658;8.578;2024-01-27T10:12:06;5.17;;;1.70;;
66298;SDS011;53098;47.658;8.578;2024-01-27T10:14:42;8.95;;;2.00;;
66298;SDS011;53098;47.658;8.578;2024-01-27T10:17:11;6.30;;;1.63;;
66298;SDS011;53098;47.658;8.578;2024-01-27T10:19:36;7.10;;;1.60;;
66298;SDS011;53098;47.658;8.578;2024-01-27T10:22:01;10.63;;;1.70;;
66298;SDS011;53098;47.658;8.578;2024-01-27T10:24:27;6.17;;;1.60;;
66298;SDS011;53098;47.658;8.578;2024-01-27T10:26:58;8.53;;;1.97;;
66298;SDS011;53098;47.658;8.578;2024-01-27T10:31:48;7.20;;;2.33;;
66298;SDS011;53098;47.658;8.578;2024-01-27T10:34:13;7.13;;;1.67;;
66298;SDS011;53098;47.658;8.578;2024-01-27T10:36:42;8.03;;;1.70;;
66298;SDS011;53098;47.658;8.578;2024-01-27T10:39:20;5.20;;;1.40;;
66298;SDS011;53098;47.658;8.578;2024-01-27T10:41:46;6.57;;;1.92;;
66298;SDS011;53098;47.658;8.578;2024-01-27T10:44:16;4.93;;;1.60;;
66298;SDS011;53098;47.658;8.578;2024-01-27T10:46:42;6.10;;;1.50;;
66298;SDS011;53098;47.658;8.578;2024-01-27T10:49:08;8.27;;;1.55;;
66298;SDS011;53098;47.658;8.578;2024-01-27T10:51:36;6.28;;;1.83;;
66298;SDS011;53098;47.658;8.578;2024-01-27T10:54:03;6.00;;;1.73;;
66298;SDS011;53098;47.658;8.578;2024-01-27T10:56:32;6.50;;;1.42;;
66298;SDS011;53098;47.658;8.578;2024-01-27T10:58:57;6.70;;;1.95;;
66298;SDS011;53098;47.658;8.578;2024-01-27T11:01:23;6.47;;;1.80;;
66298;SDS011;53098;47.658;8.578;2024-01-27T11:03:49;4.82;;;1.55;;
66298;SDS011;53098;47.658;8.578;2024-01-27T11:06:14;5.50;;;1.50;;
66298;SDS011;53098;47.658;8.578;2024-01-27T11:08:40;6.43;;;1.70;;
66298;SDS011;53098;47.658;8.578;2024-01-27T11:11:06;7.27;;;1.73;;
66298;SDS011;53098;47.658;8.578;2024-01-27T11:13:31;5.75;;;1.50;;
66298;SDS011;53098;47.658;8.578;2024-01-27T11:15:57;7.10;;;1.80;;
66298;SDS011;53098;47.658;8.578;2024-01-27T11:18:22;8.30;;;1.80;;
66298;SDS011;53098;47.658;8.578;2024-01-27T11:20:52;8.70;;;2.33;;
66298;SDS011;53098;47.658;8.578;2024-01-27T11:23:17;10.30;;;2.13;;
66298;SDS011;53098;47.658;8.578;2024-01-27T11:25:42;8.10;;;2.20;;
66298;SDS011;53098;47.658;8.578;2024-01-27T11:28:15;7.47;;;1.80;;
66298;SDS011;53098;47.658;8.578;2024-01-27T11:30:47;7.85;;;2.10;;
66298;SDS011;53098;47.658;8.578;2024-01-27T11:33:12;8.75;;;2.15;;
66298;SDS011;53098;47.658;8.578;2024-01-27T11:35:38;11.13;;;2.33;;
66298;SDS011;53098;47.658;8.578;2024-01-27T11:38:03;9.30;;;2.20;;
66298;SDS011;53098;47.658;8.578;2024-01-27T11:40:28;7.67;;;1.87;;
66298;SDS011;53098;47.658;8.578;2024-01-27T11:42:57;9.07;;;2.10;;
66298;SDS011;53098;47.658;8.578;2024-01-27T11:45:23;6.22;;;1.73;;
66298;SDS011;53098;47.658;8.578;2024-01-27T11:47:48;10.23;;;2.50;;
66298;SDS011;53098;47.658;8.578;2024-01-27T11:50:14;7.78;;;2.58;;
66298;SDS011;53098;47.658;8.578;2024-01-27T11:52:41;10.50;;;3.92;;
66298;SDS011;53098;47.658;8.578;2024-01-27T11:55:06;9.43;;;2.70;;
66298;SDS011;53098;47.658;8.578;2024-01-27T11:57:32;8.13;;;1.90;;
66298;SDS011;53098;47.658;8.578;2024-01-27T11:59:57;6.82;;;2.08;;
66298;SDS011;53098;47.658;8.578;2024-01-27T12:02:23;6.47;;;2.00;;
66298;SDS011;53098;47.658;8.578;2024-01-27T12:04:48;10.02;;;2.63;;
66298;SDS011;53098;47.658;8.578;2024-01-27T12:07:17;6.40;;;1.73;;
66298;SDS011;53098;47.658;8.578;2024-01-27T12:09:42;6.47;;;1.85;;
66298;SDS011;53098;47.658;8.578;2024-01-27T12:12:07;5.07;;;1.60;;
66298;SDS011;53098;47.658;8.578;2024-01-27T12:14:49;6.22;;;1.73;;
66298;SDS011;53098;47.658;8.578;2024-01-27T12:17:15;7.35;;;2.00;;
66298;SDS011;53098;47.658;8.578;2024-01-27T12:19:47;8.00;;;2.08;;
66298;SDS011;53098;47.658;8.578;2024-01-27T12:22:22;9.50;;;2.20;;
66298;SDS011;53098;47.658;8.578;2024-01-27T12:24:48;6.68;;;2.03;;
66298;SDS011;53098;47.658;8.578;2024-01-27T12:27:13;7.13;;;2.07;;
66298;SDS011;53098;47.658;8.578;2024-01-27T12:29:40;6.87;;;2.60;;
66298;SDS011;53098;47.658;8.578;2024-01-27T12:32:06;6.40;;;2.25;;
66298;SDS011;53098;47.658;8.578;2024-01-27T12:34:31;7.28;;;1.95;;
66298;SDS011;53098;47.658;8.578;2024-01-27T12:36:57;7.87;;;2.00;;
66298;SDS011;53098;47.658;8.578;2024-01-27T12:39:22;7.87;;;2.30;;
66298;SDS011;53098;47.658;8.578;2024-01-27T12:41:47;5.00;;;1.60;;
66298;SDS011;53098;47.658;8.578;2024-01-27T12:44:12;5.93;;;2.00;;
66298;SDS011;53098;47.658;8.578;2024-01-27T12:46:38;6.15;;;1.95;;
66298;SDS011;53098;47.658;8.578;2024-01-27T12:49:03;7.50;;;2.33;;
66298;SDS011;53098;47.658;8.578;2024-01-27T12:51:29;8.02;;;2.13;;
66298;SDS011;53098;47.658;8.578;2024-01-27T12:53:55;6.88;;;2.08;;
66298;SDS011;53098;47.658;8.578;2024-01-27T12:56:20;12.73;;;1.70;;
66298;SDS011;53098;47.658;8.578;2024-01-27T12:58:45;8.80;;;1.90;;
66298;SDS011;53098;47.658;8.578;2024-01-27T13:01:10;9.48;;;2.03;;
66298;SDS011;53098;47.658;8.578;2024-01-27T13:03:36;9.20;;;1.77;;
66298;SDS011;53098;47.658;8.578;2024-01-27T13:06:01;7.30;;;1.83;;
66298;SDS011;53098;47.658;8.578;2024-01-27T13:08:26;6.65;;;1.60;;
66298;SDS011;53098;47.658;8.578;2024-01-27T13:10:52;6.97;;;1.75;;
66298;SDS011;53098;47.658;8.578;2024-01-27T13:13:17;6.47;;;1.67;;
66298;SDS011;53098;47.658;8.578;2024-01-27T13:15:42;8.37;;;1.83;;
66298;SDS011;53098;47.658;8.578;2024-01-27T13:18:08;4.32;;;1.60;;
66298;SDS011;53098;47.658;8.578;2024-01-27T13:20:33;7.87;;;1.80;;
66298;SDS011;53098;47.658;8.578;2024-01-27T13:22:58;5.00;;;1.40;;
66298;SDS011;53098;47.658;8.578;2024-01-27T13:25:24;7.32;;;1.75;;
66298;SDS011;53098;47.658;8.578;2024-01-27T13:27:49;4.95;;;1.50;;
66298;SDS011;53098;47.658;8.578;2024-01-27T13:30:14;6.17;;;1.53;;
66298;SDS011;53098;47.658;8.578;2024-01-27T13:32:40;6.23;;;1.40;;
66298;SDS011;53098;47.658;8.578;2024-01-27T13:35:05;6.77;;;1.50;;
66298;SDS011;53098;47.658;8.578;2024-01-27T13:37:32;7.05;;;1.50;;
66298;SDS011;53098;47.658;8.578;2024-01-27T13:39:57;5.73;;;1.43;;
66298;SDS011;53098;47.658;8.578;2024-01-27T13:42:22;7.93;;;1.87;;
66298;SDS011;53098;47.658;8.578;2024-01-27T13:44:47;5.03;;;1.57;;
66298;SDS011;53098;47.658;8.578;2024-01-27T13:47:13;7.10;;;1.60;;
66298;SDS011;53098;47.658;8.578;2024-01-27T13:49:38;5.17;;;1.47;;
66298;SDS011;53098;47.658;8.578;2024-01-27T13:52:03;10.10;;;1.67;;
66298;SDS011;53098;47.658;8.578;2024-01-27T13:54:29;5.93;;;1.63;;
66298;SDS011;53098;47.658;8.578;2024-01-27T13:56:54;5.68;;;1.67;;
66298;SDS011;53098;47.658;8.578;2024-01-27T13:59:20;6.77;;;1.87;;
66298;SDS011;53098;47.658;8.578;2024-01-27T14:01:45;10.10;;;2.13;;
66298;SDS011;53098;47.658;8.578;2024-01-27T14:04:10;4.73;;;1.50;;
66298;SDS011;53098;47.658;8.578;2024-01-27T14:06:35;5.90;;;1.80;;
66298;SDS011;53098;47.658;8.578;2024-01-27T14:09:01;6.83;;;1.60;;
66298;SDS011;53098;47.658;8.578;2024-01-27T14:11:29;7.10;;;1.60;;
66298;SDS011;53098;47.658;8.578;2024-01-27T14:13:54;5.05;;;1.33;;
66298;SDS011;53098;47.658;8.578;2024-01-27T14:16:19;4.07;;;1.43;;
66298;SDS011;53098;47.658;8.578;2024-01-27T14:18:45;5.10;;;1.23;;
66298;SDS011;53098;47.658;8.578;2024-01-27T14:21:10;2.45;;;1.10;;
66298;SDS011;53098;47.658;8.578;2024-01-27T14:23:36;4.93;;;1.30;;
66298;SDS011;53098;47.658;8.578;2024-01-27T14:26:01;8.10;;;1.20;;
66298;SDS011;53098;47.658;8.578;2024-01-27T14:28:26;4.20;;;1.40;;
66298;SDS011;53098;47.658;8.578;2024-01-27T14:30:52;8.55;;;1.45;;
66298;SDS011;53098;47.658;8.578;2024-01-27T14:33:17;6.67;;;1.53;;
66298;SDS011;53098;47.658;8.578;2024-01-27T14:35:42;8.10;;;1.40;;
66298;SDS011;53098;47.658;8.578;2024-01-27T14:38:10;6.17;;;1.77;;
66298;SDS011;53098;47.658;8.578;2024-01-27T14:40:35;4.80;;;1.30;;